createdAt,value
2023-03-03T12:35:36.555Z,1015.91
2023-03-03T12:36:36.448Z,1015.85
2023-03-03T12:37:36.436Z,1015.90
2023-03-03T12:38:36.424Z,1015.88
2023-03-03T12:39:36.370Z,1015.87
2023-03-03T12:40:36.386Z,1015.82
2023-03-03T12:41:36.343Z,1015.79
2023-03-03T12:42:36.310Z,1015.80
2023-03-03T12:43:36.306Z,1015.82
2023-03-03T12:44:36.288Z,1015.78
2023-03-03T12:45:36.265Z,1015.79
2023-03-03T12:46:36.250Z,1015.73
2023-03-03T12:47:36.221Z,1015.73
2023-03-03T12:48:36.179Z,1015.76
2023-03-03T12:49:42.794Z,1015.81
2023-03-03T12:50:36.244Z,1015.76
2023-03-03T12:51:36.109Z,1015.79
2023-03-03T12:52:36.096Z,1015.70
2023-03-03T12:53:36.088Z,1015.74
2023-03-03T12:54:37.330Z,1015.75
2023-03-03T12:55:36.040Z,1015.71
2023-03-03T12:56:36.026Z,1015.69
2023-03-03T12:57:35.999Z,1015.62
2023-03-03T12:58:35.991Z,1015.68
2023-03-03T12:59:35.965Z,1015.65
2023-03-03T13:00:36.022Z,1015.65
2023-03-03T13:01:35.914Z,1015.66
2023-03-03T13:02:35.909Z,1015.66
2023-03-03T13:03:43.639Z,1015.66
2023-03-03T13:04:35.845Z,1015.71
2023-03-03T13:05:35.829Z,1015.69
2023-03-03T13:06:35.830Z,1015.66
2023-03-03T13:07:35.857Z,1015.68
2023-03-03T13:08:35.781Z,1015.65
2023-03-03T13:09:35.750Z,1015.68
2023-03-03T13:10:35.742Z,1015.70
2023-03-03T13:11:35.713Z,1015.68
2023-03-03T13:12:35.698Z,1015.66
2023-03-03T13:13:35.674Z,1015.70
2023-03-03T13:14:35.641Z,1015.65
2023-03-03T13:15:38.054Z,1015.66
2023-03-03T13:16:41.606Z,1015.63
2023-03-03T13:17:35.592Z,1015.64
2023-03-03T13:18:35.580Z,1015.63
2023-03-03T13:19:35.531Z,1015.56
2023-03-03T13:20:35.572Z,1015.57
2023-03-03T13:21:35.526Z,1015.59
2023-03-03T13:22:35.505Z,1015.62
2023-03-03T13:23:35.461Z,1015.60
2023-03-03T13:24:35.470Z,1015.59
2023-03-03T13:25:35.509Z,1015.57
2023-03-03T13:26:35.400Z,1015.53
2023-03-03T13:27:35.370Z,1015.55
2023-03-03T13:28:35.361Z,1015.53
2023-03-03T13:29:35.369Z,1015.55
2023-03-03T13:30:35.357Z,1015.52
2023-03-03T13:31:35.396Z,1015.49
2023-03-03T13:32:35.354Z,1015.51
2023-03-03T13:33:35.271Z,1015.53
2023-03-03T13:34:35.243Z,1015.45
2023-03-03T13:35:35.278Z,1015.55
2023-03-03T13:36:35.201Z,1015.51
2023-03-03T13:37:35.193Z,1015.52
2023-03-03T13:38:35.184Z,1015.49
2023-03-03T13:39:35.175Z,1015.50
2023-03-03T13:40:35.161Z,1015.47
2023-03-03T13:41:35.110Z,1015.50
2023-03-03T13:42:35.106Z,1015.47
2023-03-03T13:43:35.085Z,1015.45
2023-03-03T13:44:35.044Z,1015.47
2023-03-03T13:45:35.054Z,1015.43
2023-03-03T13:46:35.053Z,1015.46
2023-03-03T13:47:34.980Z,1015.44
2023-03-03T13:48:35.017Z,1015.41
2023-03-03T13:49:34.960Z,1015.41
2023-03-03T13:50:34.947Z,1015.37
2023-03-03T13:51:34.922Z,1015.38
2023-03-03T13:52:34.912Z,1015.34
2023-03-03T13:53:34.863Z,1015.34
2023-03-03T13:54:34.851Z,1015.35
2023-03-03T13:55:34.839Z,1015.34
2023-03-03T13:56:34.823Z,1015.37
2023-03-03T13:57:34.839Z,1015.35
2023-03-03T13:58:34.794Z,1015.32
2023-03-03T13:59:34.761Z,1015.34
2023-03-03T14:00:36.380Z,1015.29
2023-03-03T14:01:34.717Z,1015.30
2023-03-03T14:02:34.695Z,1015.29
2023-03-03T14:03:34.665Z,1015.30
2023-03-03T14:04:34.739Z,1015.35
2023-03-03T14:05:34.647Z,1015.31
2023-03-03T14:06:35.493Z,1015.31
2023-03-03T14:07:34.635Z,1015.31
2023-03-03T14:08:34.599Z,1015.33
2023-03-03T14:09:34.588Z,1015.37
2023-03-03T14:10:34.556Z,1015.30
2023-03-03T14:11:34.579Z,1015.36
2023-03-03T14:12:34.512Z,1015.32
2023-03-03T14:13:34.482Z,1015.33
2023-03-03T14:14:34.527Z,1015.28
2023-03-03T14:15:34.435Z,1015.30
2023-03-03T14:16:34.480Z,1015.32
2023-03-03T14:17:34.415Z,1015.25
2023-03-03T14:18:34.415Z,1015.29
2023-03-03T14:19:34.410Z,1015.31
2023-03-03T14:20:34.466Z,1015.22
2023-03-03T14:21:34.420Z,1015.28
2023-03-03T14:22:34.316Z,1015.31
2023-03-03T14:23:34.362Z,1015.19
2023-03-03T14:24:34.304Z,1015.20
2023-03-03T14:25:35.921Z,1015.14
2023-03-03T14:26:34.289Z,1015.14
2023-03-03T14:37:30.008Z,1015.09
2023-03-03T14:38:29.979Z,1015.14
2023-03-03T14:39:29.956Z,1015.10
2023-03-03T14:40:29.976Z,1015.14
2023-03-03T14:41:29.913Z,1015.15
2023-03-03T14:42:29.940Z,1015.24
2023-03-03T14:43:29.879Z,1015.27
2023-03-03T14:44:29.870Z,1015.32
2023-03-03T14:45:30.778Z,1015.33
2023-03-03T14:46:29.873Z,1015.37
2023-03-03T14:47:29.842Z,1015.31
2023-03-03T14:48:32.337Z,1015.26
2023-03-03T14:49:29.765Z,1015.30
2023-03-03T14:50:29.778Z,1015.27
2023-03-03T14:51:29.748Z,1015.20
2023-03-03T14:52:29.761Z,1015.09
2023-03-03T14:53:29.718Z,1014.97
2023-03-03T14:54:29.685Z,1014.97
2023-03-03T14:55:29.700Z,1014.97
2023-03-03T14:56:29.672Z,1014.95
2023-03-03T14:57:29.664Z,1014.93
2023-03-03T14:58:29.639Z,1014.95
